Terminal Aerodrome Forecast
Issued by NWS

Home | Current Version | Previous Version | Text Only | Print | Product List | Glossary On
Versions: 1 2 3 4 5 6 7 8 9 10 11 12 13 14 15 16 17 18
000
FTUS44 KLZK 281330 AAA
TAFLIT
TAF AMD
KLIT 281330Z 2814/2912 04006KT P6SM BKN030
      TEMPO 2814/2816 BKN012
     FM281800 08007KT P6SM SCT050 SCT250=

USA.gov is the U.S. government's official web portal to all federal, state and local government web resources and services.